GMMNLFMK

Guest
Details From GMMN - Casablanca Mohammed V Intl
To LFMK - Salvaza
Flight Number -
Tags Generated
Created
Modified
Stats Distance 752 nm / 1,392 km
Max Altitude 0 ft / 0 m
Waypoints 5
Social Downloads 0
Likes 0
Share VATSIM

Download

Looking for another format? Having issues loading an existing format? Contact us
Advertisement - Login to hide

Notes

Generated

Route

GMMN GMM05 CENTA GAI57 LFMK

ID Type Via Altitude Latitude Longitude Leg Dist Tot Dist Heading (true) Name
O GMMN APT - 0 ft / 0 m 33.38306˚ -7.59743˚ - 0 nm - -
GMM05 FIX - 0 ft / 0 m 36.73814˚ -4.58744˚ 249 nm 249 nm 35° / 37° -
CENTA FIX - 0 ft / 0 m 39.90062˚ -1.43200˚ 241 nm 491 nm 37° / 39° -
GAI57 FIX - 0 ft / 0 m 43.00000˚ 1.93611˚ 240 nm 731 nm 38° / 40° -
O LFMK APT - 0 ft / 0 m 43.21714˚ 2.29266˚ 20 nm 751 nm 50° / 50° -

Altitude Profile

Advertisement - Login to hide

Weather


0- 5 10 15 20 25 30 35+ Temperature / ° C

Clouds and Precipitation
Forecast for 2017-12-16 12:00 UTC. Updated 15 minutes ago

Ground ~20,000 ft ~40,000 ft Winds

GMMN

Details ICAO GMMN (CMN)
Name Casablanca Mohammed V Intl
Region Morocco
Timezone Africa/Casablanca (UTC+0.0)
Stats Elevation 656 ft / 200 m (AMSL)
Location 33.367466° -7.589964°
Runways 2
Magnetic Variation 1.816° W

METAR

GMMN 160730Z 22012KT 6000 RA SCT010 BKN016 14/14 Q1018 NOSIG

Decode

TAF

TAF TAF GMMN 152300Z 1600/1706 24010KT 8000 BKN020 BKN080 TEMPO 1600/1609 6000 RA BECMG 1610/1614 36012KT 9999 SCT016 SCT020 TEMPO 1620/1706 02008KT 6000 SCT010 SCT016

Decode

Departure Runways

ID Width Length Bearing (true) Bearing (mag) Surface Threshold Offset Overrun Length
17L 148 ft / 45 m 12,224 ft / 3,726 m 164.03° 165.85° Asphalt 0 ft / 0 m 295 ft / 90 m
17R 148 ft / 45 m 12,196 ft / 3,717 m 164.03° 165.85° Asphalt 0 ft / 0 m 197 ft / 60 m
35L 148 ft / 45 m 12,196 ft / 3,717 m 344.04° 345.86° Asphalt 0 ft / 0 m 180 ft / 55 m
35R 148 ft / 45 m 12,224 ft / 3,726 m 344.04° 345.86° Asphalt 0 ft / 0 m 995 ft / 303 m

LFMK

Details ICAO LFMK (CCF)
Name Salvaza
Region France
Timezone Europe/Paris (UTC+1.0)
Stats Elevation 433 ft / 132 m (AMSL)
Location 43.216122° 2.305496°
Runways 1
Magnetic Variation 0.836° E

METAR

LFMK 160730Z AUTO 29010KT 9999 FEW011 04/02 Q1017 TEMPO RA OVC010 BECMG 28015G25KT

Decode

TAF

TAF LFMK 160200Z 1603/1703 28015G25KT 9999 BKN030 TEMPO 1603/1703 RA OVC010

Decode

Destination Runways

ID Width Length Bearing (true) Bearing (mag) Surface Threshold Offset Overrun Length
10 148 ft / 45 m 6,869 ft / 2,094 m 96.20° 95.36° Asphalt 479 ft / 146 m 0 ft / 0 m
28 148 ft / 45 m 6,869 ft / 2,094 m 276.22° 275.38° Asphalt 492 ft / 150 m 0 ft / 0 m

Approach Navaids

Runway Type Ident Frequency Range Bearing (true) Bearing (mag) Slope Elevation
10 Localiser CS 111.10 MHz 27 nm / 50 km 96.29° 95.45° - 433 ft / 132 m (AMSL)
10 Glidescope CS 111.10 MHz 27 nm / 50 km 96.29° 95.45° 3.00° 433 ft / 132 m (AMSL)
10 DME CS 111.10 MHz 27 nm / 50 km - - - 433 ft / 132 m (AMSL)